createdAt,value
2023-11-03T00:00:19.452Z,7.68
2023-11-03T00:02:47.313Z,6.93
2023-11-03T00:05:15.839Z,8.18
2023-11-03T00:07:43.889Z,6.03
2023-11-03T00:10:11.750Z,5.03
2023-11-03T00:12:40.670Z,3.97
2023-11-03T00:15:11.001Z,5.28
2023-11-03T00:17:39.364Z,4.43
2023-11-03T00:20:09.040Z,4.78
2023-11-03T00:22:36.765Z,4.07
2023-11-03T00:25:04.748Z,4.05
2023-11-03T00:27:33.584Z,8.13
2023-11-03T00:30:02.194Z,4.68
2023-11-03T00:32:31.399Z,4.03
2023-11-03T00:34:59.023Z,5.40
2023-11-03T00:37:27.023Z,4.43
2023-11-03T00:39:54.826Z,4.65
2023-11-03T00:42:22.440Z,5.20
2023-11-03T00:44:50.084Z,7.50
2023-11-03T00:47:18.007Z,5.15
2023-11-03T00:49:46.993Z,9.00
2023-11-03T00:52:14.632Z,6.70
2023-11-03T00:54:42.299Z,5.97
2023-11-03T00:57:10.047Z,5.55
2023-11-03T00:59:38.116Z,6.22
2023-11-03T01:02:05.935Z,6.55
2023-11-03T01:04:33.594Z,9.02
2023-11-03T01:07:03.546Z,7.97
2023-11-03T01:09:31.164Z,5.47
2023-11-03T01:11:58.982Z,5.82
2023-11-03T01:14:26.614Z,7.07
2023-11-03T01:16:54.767Z,6.72
2023-11-03T01:19:23.063Z,6.30
2023-11-03T01:21:50.820Z,6.72
2023-11-03T01:24:19.910Z,5.32
2023-11-03T01:26:47.473Z,7.30
2023-11-03T01:29:15.191Z,7.90
2023-11-03T01:31:42.855Z,9.30
2023-11-03T01:34:11.114Z,9.07
2023-11-03T01:36:39.317Z,6.55
2023-11-03T01:39:09.387Z,5.88
2023-11-03T01:41:38.520Z,6.40
2023-11-03T01:44:13.418Z,5.90
2023-11-03T01:46:42.764Z,6.00
2023-11-03T01:49:13.393Z,15.73
2023-11-03T01:51:43.280Z,6.10
2023-11-03T01:54:12.135Z,7.07
2023-11-03T01:56:41.806Z,7.55
2023-11-03T01:59:10.160Z,6.55
2023-11-03T02:01:38.910Z,8.82
2023-11-03T02:04:07.323Z,5.28
2023-11-03T02:06:35.009Z,7.38
2023-11-03T02:09:02.768Z,5.72
2023-11-03T02:11:31.621Z,6.85
2023-11-03T02:14:00.995Z,8.20
2023-11-03T02:16:28.954Z,8.13
2023-11-03T02:18:56.753Z,8.02
2023-11-03T02:21:24.446Z,8.25
2023-11-03T02:23:53.781Z,6.35
2023-11-03T02:26:21.562Z,6.47
2023-11-03T02:28:49.178Z,5.63
2023-11-03T02:31:16.798Z,6.40
2023-11-03T02:33:44.470Z,5.75
2023-11-03T02:36:12.168Z,6.10
2023-11-03T02:38:39.777Z,4.13
2023-11-03T02:41:09.062Z,7.20
2023-11-03T02:43:36.732Z,6.32
2023-11-03T02:46:05.272Z,4.72
2023-11-03T02:48:33.218Z,4.93
2023-11-03T02:51:01.895Z,7.70
2023-11-03T02:53:29.489Z,5.15
2023-11-03T02:55:57.113Z,5.65
2023-11-03T02:58:29.149Z,7.63
2023-11-03T03:00:56.862Z,6.05
2023-11-03T03:03:24.457Z,7.35
2023-11-03T03:05:52.135Z,5.25
2023-11-03T03:08:19.776Z,5.28
2023-11-03T03:10:47.364Z,6.38
2023-11-03T03:13:16.134Z,7.38
2023-11-03T03:15:45.106Z,6.57
2023-11-03T03:18:12.799Z,10.43
2023-11-03T03:20:40.522Z,7.47
2023-11-03T03:23:08.193Z,6.85
2023-11-03T03:25:36.341Z,15.70
2023-11-03T03:28:04.041Z,10.10
2023-11-03T03:30:31.699Z,7.57
2023-11-03T03:33:00.769Z,7.03
2023-11-03T03:35:28.444Z,7.05
2023-11-03T03:37:56.011Z,6.32
2023-11-03T03:40:23.632Z,7.63
2023-11-03T03:42:51.300Z,7.07
2023-11-03T03:45:19.008Z,7.38
2023-11-03T03:47:46.675Z,6.57
2023-11-03T03:50:15.706Z,10.65
2023-11-03T03:52:43.366Z,5.95
2023-11-03T03:55:10.977Z,7.38
2023-11-03T03:57:38.643Z,6.05
2023-11-03T04:00:08.458Z,5.43
2023-11-03T04:02:36.143Z,6.53
2023-11-03T04:05:03.797Z,6.60
2023-11-03T04:07:33.459Z,4.95
2023-11-03T04:10:01.631Z,6.78
2023-11-03T04:12:29.282Z,5.68
2023-11-03T04:14:56.887Z,8.15
2023-11-03T04:17:24.503Z,5.60
2023-11-03T04:19:52.189Z,7.25
2023-11-03T04:22:22.051Z,6.60
2023-11-03T04:24:51.149Z,6.38
2023-11-03T04:27:18.793Z,4.78
2023-11-03T04:29:46.410Z,5.30
2023-11-03T04:32:14.033Z,6.35
2023-11-03T04:34:41.827Z,4.55
2023-11-03T04:37:09.708Z,5.95
2023-11-03T04:39:37.360Z,5.00
2023-11-03T04:42:07.132Z,5.35
2023-11-03T04:44:35.455Z,4.93
2023-11-03T04:47:03.733Z,5.28
2023-11-03T04:49:31.717Z,5.72
2023-11-03T04:51:59.528Z,7.82
2023-11-03T04:54:27.821Z,5.07
2023-11-03T04:56:55.635Z,4.93
2023-11-03T04:59:24.804Z,6.32
2023-11-03T05:01:52.583Z,5.32
2023-11-03T05:04:20.451Z,5.30
2023-11-03T05:06:54.826Z,6.05
2023-11-03T05:09:23.337Z,4.47
2023-11-03T05:11:50.982Z,4.65
2023-11-03T05:14:18.518Z,3.72
2023-11-03T05:16:48.111Z,6.57
2023-11-03T05:19:16.462Z,3.92
2023-11-03T05:21:44.218Z,4.60
2023-11-03T05:24:11.848Z,4.97
2023-11-03T05:26:39.562Z,3.78
2023-11-03T05:29:18.794Z,3.63
2023-11-03T05:31:52.841Z,3.55
2023-11-03T05:34:20.758Z,3.40
2023-11-03T05:36:48.523Z,5.40
2023-11-03T05:39:18.419Z,4.65
2023-11-03T05:41:47.875Z,4.85
2023-11-03T05:44:15.708Z,4.15
2023-11-03T05:46:43.381Z,4.97
2023-11-03T05:49:12.863Z,3.58
2023-11-03T05:51:41.176Z,6.55
2023-11-03T05:54:09.061Z,3.42
2023-11-03T05:56:36.821Z,3.15
2023-11-03T05:59:04.840Z,3.20
2023-11-03T06:01:34.621Z,5.88
2023-11-03T06:04:02.667Z,6.28
2023-11-03T06:06:32.388Z,3.97
2023-11-03T06:09:00.752Z,5.22
2023-11-03T06:11:28.509Z,5.22
2023-11-03T06:13:56.252Z,5.82
2023-11-03T06:16:24.788Z,4.32
2023-11-03T06:18:53.980Z,4.25
2023-11-03T06:21:22.287Z,6.68
2023-11-03T06:23:51.500Z,4.15
2023-11-03T06:26:19.707Z,2.97
2023-11-03T06:28:47.428Z,3.55
2023-11-03T06:31:15.739Z,5.55
2023-11-03T06:33:44.363Z,3.95
2023-11-03T06:36:12.282Z,3.22
2023-11-03T06:38:40.346Z,3.38
2023-11-03T06:41:12.385Z,5.57
2023-11-03T06:43:42.225Z,5.75
2023-11-03T06:46:10.442Z,6.95
2023-11-03T06:48:38.618Z,3.47
2023-11-03T06:51:11.814Z,3.28
2023-11-03T06:53:39.773Z,2.40
2023-11-03T06:56:09.529Z,2.65
2023-11-03T06:58:37.505Z,5.10
2023-11-03T07:01:06.579Z,9.50
2023-11-03T07:03:34.963Z,8.25
2023-11-03T07:06:04.995Z,8.30
2023-11-03T07:08:32.974Z,8.70
2023-11-03T07:11:00.673Z,8.77
2023-11-03T07:13:31.053Z,5.53
2023-11-03T07:15:58.812Z,5.85
2023-11-03T07:18:26.572Z,7.05
2023-11-03T07:20:54.768Z,5.93
2023-11-03T07:23:23.070Z,7.18
2023-11-03T07:25:52.033Z,12.27
2023-11-03T07:28:20.033Z,7.80
2023-11-03T07:30:52.101Z,8.00
2023-11-03T07:33:20.952Z,5.47
2023-11-03T07:35:49.225Z,7.97
2023-11-03T07:38:18.982Z,8.20
2023-11-03T07:40:48.300Z,6.05
2023-11-03T07:43:16.527Z,12.85
2023-11-03T07:45:44.793Z,4.82
2023-11-03T07:48:13.938Z,5.93
2023-11-03T07:50:41.662Z,3.42
2023-11-03T07:53:09.595Z,5.97
2023-11-03T07:55:37.930Z,4.50
2023-11-03T07:58:07.172Z,6.65
2023-11-03T08:00:36.126Z,6.47
2023-11-03T08:03:07.384Z,5.82
2023-11-03T08:05:36.673Z,6.07
2023-11-03T08:08:05.714Z,6.18
2023-11-03T08:10:33.643Z,4.25
2023-11-03T08:13:01.468Z,5.88
2023-11-03T08:15:29.606Z,4.68
2023-11-03T08:17:57.493Z,5.35
2023-11-03T08:20:25.179Z,3.15
2023-11-03T08:22:54.919Z,5.88
2023-11-03T08:25:22.720Z,2.83
2023-11-03T08:27:50.462Z,5.70
2023-11-03T08:30:18.459Z,6.43
2023-11-03T08:32:48.339Z,8.13
2023-11-03T08:35:16.483Z,7.63
2023-11-03T08:37:44.213Z,5.95
2023-11-03T08:40:14.584Z,3.88
2023-11-03T08:42:44.884Z,4.72
2023-11-03T08:45:13.140Z,7.93
2023-11-03T08:47:42.560Z,4.95
2023-11-03T08:50:11.349Z,3.22
2023-11-03T08:52:39.318Z,3.00
2023-11-03T08:55:08.496Z,3.17
2023-11-03T08:57:38.236Z,3.72
2023-11-03T09:00:11.057Z,3.13
2023-11-03T09:02:39.119Z,3.75
2023-11-03T09:05:08.639Z,3.65
2023-11-03T09:07:36.982Z,3.05
2023-11-03T09:10:07.275Z,4.93
2023-11-03T09:12:35.729Z,3.70
2023-11-03T09:15:06.889Z,2.25
2023-11-03T09:17:34.905Z,4.18
2023-11-03T09:20:05.496Z,3.30
2023-11-03T09:22:36.644Z,6.15
2023-11-03T09:25:07.356Z,2.38
2023-11-03T09:27:35.489Z,4.13
2023-11-03T09:30:06.126Z,2.33
2023-11-03T09:32:34.374Z,2.78
2023-11-03T09:35:02.384Z,3.65
2023-11-03T09:37:30.480Z,4.90
2023-11-03T09:39:58.786Z,2.55
2023-11-03T09:42:26.661Z,6.35
2023-11-03T09:44:54.567Z,10.25
2023-11-03T09:47:23.953Z,7.63
2023-11-03T09:49:51.776Z,5.72
2023-11-03T09:52:21.662Z,9.82
2023-11-03T09:54:53.148Z,4.63
2023-11-03T09:57:20.908Z,7.53
2023-11-03T09:59:48.908Z,2.53
2023-11-03T10:02:21.050Z,7.20
2023-11-03T10:04:50.392Z,6.15
2023-11-03T10:07:19.658Z,3.88
2023-11-03T10:09:47.518Z,3.55
2023-11-03T10:12:16.684Z,5.10
2023-11-03T10:14:45.282Z,5.82
2023-11-03T10:17:15.495Z,6.43
2023-11-03T10:19:43.921Z,4.35
2023-11-03T10:22:13.229Z,4.82
2023-11-03T10:24:41.914Z,3.45
2023-11-03T10:27:13.266Z,3.83
2023-11-03T10:29:41.991Z,2.40
2023-11-03T10:32:11.101Z,2.92
2023-11-03T10:34:40.645Z,2.95
2023-11-03T10:37:09.337Z,5.30
2023-11-03T10:39:38.538Z,6.82
2023-11-03T10:42:07.639Z,2.03
2023-11-03T10:44:37.349Z,3.00
2023-11-03T10:47:08.435Z,3.78
2023-11-03T10:49:41.923Z,4.00
2023-11-03T10:52:18.037Z,3.53
2023-11-03T10:54:56.509Z,2.05
2023-11-03T11:00:01.830Z,3.92
2023-11-03T11:02:34.098Z,4.00
2023-11-03T11:05:07.222Z,2.15
2023-11-03T11:07:38.958Z,2.70
2023-11-03T11:10:09.701Z,4.55
2023-11-03T11:12:48.548Z,4.85
2023-11-03T11:15:18.709Z,3.35
2023-11-03T11:17:47.655Z,3.10
2023-11-03T11:20:31.690Z,2.55
2023-11-03T11:23:05.391Z,4.25
2023-11-03T11:25:35.616Z,1.30
2023-11-03T11:28:03.984Z,2.60
2023-11-03T11:30:35.166Z,3.38
2023-11-03T11:33:03.679Z,2.70
2023-11-03T11:35:39.969Z,1.13
2023-11-03T11:38:08.144Z,3.13
2023-11-03T11:40:37.697Z,3.70
2023-11-03T11:43:18.342Z,4.07
2023-11-03T11:45:53.217Z,3.63
2023-11-03T11:48:21.894Z,1.58
2023-11-03T11:50:51.101Z,2.85
2023-11-03T11:53:18.963Z,2.53
2023-11-03T11:55:48.239Z,1.45
2023-11-03T11:58:16.216Z,2.85
2023-11-03T12:00:44.634Z,6.05
2023-11-03T12:03:12.666Z,2.13
2023-11-03T12:05:40.582Z,3.22
2023-11-03T12:08:08.499Z,4.10
2023-11-03T12:10:36.429Z,2.88
2023-11-03T12:13:06.269Z,1.60
2023-11-03T12:15:34.186Z,2.63
2023-11-03T12:18:02.652Z,3.08
2023-11-03T12:20:30.621Z,4.25
2023-11-03T12:22:58.440Z,4.25
2023-11-03T12:25:26.300Z,2.35
2023-11-03T12:27:59.444Z,2.17
2023-11-03T12:30:29.648Z,1.50
2023-11-03T12:33:00.735Z,1.58
2023-11-03T12:35:33.222Z,2.00
2023-11-03T12:38:01.578Z,2.22
2023-11-03T12:40:29.362Z,1.38
2023-11-03T12:43:11.078Z,1.02
2023-11-03T12:45:40.450Z,1.88
2023-11-03T12:48:20.267Z,3.40
2023-11-03T12:50:56.507Z,2.10
2023-11-03T12:53:25.067Z,1.75
2023-11-03T12:55:59.238Z,1.48
2023-11-03T12:58:27.289Z,1.83
2023-11-03T13:00:59.286Z,1.10
2023-11-03T13:03:29.750Z,0.75
2023-11-03T13:05:59.252Z,2.65
2023-11-03T13:08:26.942Z,4.60
2023-11-03T13:10:55.508Z,0.93
2023-11-03T13:13:23.611Z,4.25
2023-11-03T13:15:51.910Z,2.53
2023-11-03T13:18:23.282Z,2.10
2023-11-03T13:20:51.869Z,2.10
2023-11-03T13:23:19.774Z,4.03
2023-11-03T13:25:47.591Z,1.88
2023-11-03T13:28:15.492Z,2.75
2023-11-03T13:30:43.320Z,1.52
2023-11-03T13:33:12.370Z,1.80
2023-11-03T13:35:41.796Z,0.90
2023-11-03T13:38:09.910Z,1.73
2023-11-03T13:40:37.695Z,2.33
2023-11-03T13:43:07.214Z,1.48
2023-11-03T13:45:35.585Z,1.83
2023-11-03T13:48:03.546Z,1.38
2023-11-03T13:50:31.508Z,2.03
2023-11-03T13:53:00.984Z,1.45
2023-11-03T13:55:30.335Z,2.47
2023-11-03T13:58:01.662Z,1.05
2023-11-03T14:00:30.101Z,0.93
2023-11-03T14:02:57.959Z,2.95
2023-11-03T14:05:26.692Z,2.63
2023-11-03T14:07:56.900Z,1.52
2023-11-03T14:10:26.167Z,1.85
2023-11-03T14:12:54.113Z,0.70
2023-11-03T14:15:23.861Z,1.30
2023-11-03T14:17:51.655Z,3.67
2023-11-03T14:20:22.784Z,1.63
2023-11-03T14:22:50.882Z,0.63
2023-11-03T14:25:18.686Z,1.35
2023-11-03T14:27:48.029Z,1.95
2023-11-03T14:30:16.584Z,2.25
2023-11-03T14:32:44.550Z,1.35
2023-11-03T14:35:13.553Z,1.00
2023-11-03T14:37:42.367Z,1.83
2023-11-03T14:40:15.871Z,3.67
2023-11-03T14:42:50.051Z,1.55
2023-11-03T14:45:21.696Z,1.83
2023-11-03T14:47:50.037Z,2.03
2023-11-03T14:50:18.880Z,1.55
2023-11-03T14:52:48.344Z,1.48
2023-11-03T14:55:18.259Z,1.27
2023-11-03T14:57:48.363Z,2.03
2023-11-03T15:00:18.015Z,2.40
2023-11-03T15:02:49.332Z,1.35
2023-11-03T15:05:18.005Z,1.08
2023-11-03T15:07:46.005Z,5.07
2023-11-03T15:10:15.154Z,1.50
2023-11-03T15:12:45.233Z,2.28
2023-11-03T15:15:17.358Z,1.63
2023-11-03T15:17:45.915Z,2.42
2023-11-03T15:20:15.767Z,1.75
2023-11-03T15:22:45.847Z,1.15
2023-11-03T15:25:16.029Z,2.35
2023-11-03T15:27:45.063Z,1.30
2023-11-03T15:30:15.568Z,3.17
2023-11-03T15:32:45.519Z,3.95
2023-11-03T15:35:14.807Z,0.60
2023-11-03T15:37:44.455Z,2.97
2023-11-03T15:40:17.370Z,1.17
2023-11-03T15:42:45.298Z,3.92
2023-11-03T15:45:16.218Z,2.83
2023-11-03T15:47:48.015Z,1.80
2023-11-03T15:50:18.762Z,4.25
2023-11-03T15:52:49.013Z,0.63
2023-11-03T15:55:17.077Z,1.42
2023-11-03T15:57:47.845Z,0.93
2023-11-03T16:00:16.018Z,1.15
2023-11-03T16:02:45.778Z,0.40
2023-11-03T16:05:14.242Z,2.42
2023-11-03T16:07:42.842Z,0.20
2023-11-03T16:10:15.555Z,2.28
2023-11-03T16:12:46.787Z,2.15
2023-11-03T16:15:16.395Z,0.80
2023-11-03T16:17:46.086Z,0.73
2023-11-03T16:20:15.501Z,0.73
2023-11-03T16:22:43.888Z,1.65
2023-11-03T16:25:13.920Z,1.38
2023-11-03T16:27:42.067Z,0.35
2023-11-03T16:30:15.214Z,0.50
2023-11-03T16:32:45.749Z,1.52
2023-11-03T16:35:14.642Z,1.15
2023-11-03T16:37:43.238Z,2.55
2023-11-03T16:40:12.709Z,1.85
2023-11-03T16:42:40.885Z,1.23
2023-11-03T16:45:11.380Z,1.50
2023-11-03T16:47:39.987Z,1.10
2023-11-03T16:50:12.587Z,1.92
2023-11-03T16:52:42.039Z,0.70
2023-11-03T16:55:11.834Z,2.30
2023-11-03T16:57:41.012Z,0.80
2023-11-03T17:00:13.331Z,0.80
2023-11-03T17:02:45.014Z,0.85
2023-11-03T17:07:44.465Z,1.48
2023-11-03T17:10:12.752Z,1.73
2023-11-03T17:12:53.535Z,1.83
2023-11-03T17:15:28.026Z,4.00
2023-11-03T17:17:56.517Z,6.03
2023-11-03T17:20:26.173Z,5.25
2023-11-03T17:22:55.367Z,4.40
2023-11-03T17:25:25.918Z,3.63
2023-11-03T17:27:55.601Z,3.15
2023-11-03T17:30:23.880Z,3.53
2023-11-03T17:32:54.182Z,1.48
2023-11-03T17:35:24.596Z,3.55
2023-11-03T17:37:57.648Z,2.40
2023-11-03T17:40:26.378Z,2.28
2023-11-03T17:42:54.324Z,3.97
2023-11-03T17:45:22.833Z,4.57
2023-11-03T17:47:52.437Z,4.90
2023-11-03T17:50:21.231Z,3.65
2023-11-03T17:52:49.786Z,3.20
2023-11-03T17:55:22.819Z,5.10
2023-11-03T17:57:52.020Z,3.33
2023-11-03T18:00:21.427Z,2.63
2023-11-03T18:02:49.154Z,4.30
2023-11-03T18:05:17.807Z,5.13
2023-11-03T18:07:47.302Z,3.47
2023-11-03T18:10:14.986Z,5.32
2023-11-03T18:12:44.069Z,4.03
2023-11-03T18:15:12.943Z,3.78
2023-11-03T18:17:42.235Z,3.17
2023-11-03T18:20:14.039Z,2.63
2023-11-03T18:22:42.204Z,2.67
2023-11-03T18:25:10.975Z,4.47
2023-11-03T18:27:39.214Z,6.25
2023-11-03T18:30:11.816Z,3.70
2023-11-03T18:35:10.100Z,2.80
2023-11-03T18:37:38.801Z,3.20
2023-11-03T18:40:08.351Z,2.50
2023-11-03T18:42:35.992Z,3.00
2023-11-03T18:45:03.999Z,4.05
2023-11-03T18:47:34.744Z,1.60
2023-11-03T18:52:33.498Z,2.15
2023-11-03T18:55:56.928Z,3.70
2023-11-03T18:58:31.490Z,4.40
2023-11-03T19:07:26.100Z,5.75
2023-11-03T19:08:28.560Z,4.53
2023-11-03T19:10:56.425Z,9.80
2023-11-03T19:13:24.025Z,8.55
2023-11-03T19:15:52.618Z,8.25
2023-11-03T19:18:22.373Z,8.35
2023-11-03T19:20:50.292Z,6.22
2023-11-03T19:23:18.053Z,16.48
2023-11-03T19:25:45.727Z,6.65
2023-11-03T19:28:15.227Z,7.63
2023-11-03T19:30:44.332Z,9.50
2023-11-03T19:33:13.761Z,8.45
2023-11-03T19:35:49.349Z,6.97
2023-11-03T19:38:18.049Z,7.82
2023-11-03T19:40:46.930Z,5.25
2023-11-03T19:43:14.573Z,11.30
2023-11-03T19:45:42.233Z,6.32
2023-11-03T19:48:11.888Z,14.48
2023-11-03T19:50:39.656Z,14.02
2023-11-03T19:53:09.610Z,6.93
2023-11-03T19:55:37.737Z,5.95
2023-11-03T19:58:05.372Z,7.68
2023-11-03T20:00:34.655Z,6.28
2023-11-03T20:03:02.463Z,4.22
2023-11-03T20:05:30.134Z,6.10
2023-11-03T20:07:57.736Z,5.80
2023-11-03T20:10:27.604Z,8.00
2023-11-03T20:12:55.195Z,6.45
2023-11-03T20:15:22.789Z,5.72
2023-11-03T20:17:51.727Z,5.38
2023-11-03T20:20:20.078Z,4.65
2023-11-03T20:22:47.669Z,4.78
2023-11-03T20:25:15.322Z,6.93
2023-11-03T20:27:44.301Z,3.88
2023-11-03T20:30:12.660Z,6.35
2023-11-03T20:32:40.339Z,4.75
2023-11-03T20:35:08.969Z,4.90
2023-11-03T20:37:37.850Z,2.92
2023-11-03T20:40:09.466Z,2.95
2023-11-03T20:42:38.237Z,6.22
2023-11-03T20:45:08.211Z,4.10
2023-11-03T20:47:35.924Z,3.88
2023-11-03T20:50:04.351Z,4.13
2023-11-03T20:52:34.525Z,5.10
2023-11-03T20:55:02.084Z,5.85
2023-11-03T20:57:29.638Z,3.78
2023-11-03T20:59:57.229Z,4.05
2023-11-03T21:02:26.143Z,4.10
2023-11-03T21:04:55.044Z,5.80
2023-11-03T21:07:22.902Z,4.32
2023-11-03T21:09:50.517Z,2.67
2023-11-03T21:12:19.490Z,5.20
2023-11-03T21:14:47.221Z,1.88
2023-11-03T21:17:16.329Z,3.40
2023-11-03T21:19:45.206Z,4.72
2023-11-03T21:22:13.341Z,2.90
2023-11-03T21:24:41.486Z,4.95
2023-11-03T21:27:09.212Z,3.83
2023-11-03T21:29:37.203Z,4.85
2023-11-03T21:32:05.735Z,2.78
2023-11-03T21:34:33.341Z,4.22
2023-11-03T21:37:02.290Z,4.07
2023-11-03T21:39:30.102Z,4.00
2023-11-03T21:41:57.631Z,2.08
2023-11-03T21:44:25.405Z,3.65
2023-11-03T21:46:53.283Z,5.63
2023-11-03T21:49:20.899Z,4.15
2023-11-03T21:51:49.179Z,2.15
2023-11-03T21:54:19.729Z,2.58
2023-11-03T21:56:47.613Z,4.00
2023-11-03T21:59:15.990Z,1.67
2023-11-03T22:01:43.589Z,6.05
2023-11-03T22:04:11.189Z,3.45
2023-11-03T22:06:38.978Z,4.10
2023-11-03T22:09:09.887Z,2.72
2023-11-03T22:11:39.316Z,2.03
2023-11-03T22:14:06.893Z,2.50
2023-11-03T22:16:35.039Z,1.35
2023-11-03T22:19:03.009Z,2.40
2023-11-03T22:21:31.384Z,3.63
2023-11-03T22:24:01.159Z,4.22
2023-11-03T22:26:32.929Z,2.25
2023-11-03T22:29:08.629Z,3.17
2023-11-03T22:31:43.405Z,4.40
2023-11-03T22:34:11.094Z,4.22
2023-11-03T22:36:38.780Z,4.25
2023-11-03T22:39:06.628Z,4.72
2023-11-03T22:41:34.153Z,5.72
2023-11-03T22:44:01.660Z,7.45
2023-11-03T22:46:30.766Z,7.90
2023-11-03T22:48:58.374Z,3.63
2023-11-03T22:51:25.940Z,3.80
2023-11-03T22:53:54.565Z,3.15
2023-11-03T22:56:23.165Z,2.67
2023-11-03T22:58:51.446Z,1.88
2023-11-03T23:01:20.341Z,3.42
2023-11-03T23:03:49.313Z,2.35
2023-11-03T23:06:18.990Z,2.47
2023-11-03T23:08:46.659Z,2.60
2023-11-03T23:11:14.438Z,4.97
2023-11-03T23:13:42.030Z,1.70
2023-11-03T23:16:10.457Z,1.88
2023-11-03T23:18:38.140Z,3.03
2023-11-03T23:21:12.603Z,2.78
2023-11-03T23:23:41.268Z,3.33
2023-11-03T23:26:08.867Z,6.50
2023-11-03T23:28:36.452Z,3.55
2023-11-03T23:31:04.656Z,1.55
2023-11-03T23:33:32.663Z,5.00
2023-11-03T23:36:01.207Z,2.75
2023-11-03T23:38:30.053Z,4.57
2023-11-03T23:40:57.554Z,2.08
2023-11-03T23:43:25.088Z,5.13
2023-11-03T23:45:54.654Z,2.60
2023-11-03T23:48:23.664Z,6.43
2023-11-03T23:50:51.363Z,3.35
2023-11-03T23:53:19.007Z,2.50
2023-11-03T23:55:47.876Z,2.60
2023-11-03T23:58:16.203Z,1.95
